sensor_id;sensor_type;location;lat;lon;timestamp;temperature;humidity
18880;DHT22;9572;52.378;13.404;2024-02-26T00:00:19;2.30;99.90
18880;DHT22;9572;52.378;13.404;2024-02-26T00:02:46;2.40;99.90
18880;DHT22;9572;52.378;13.404;2024-02-26T00:05:13;2.40;99.90
18880;DHT22;9572;52.378;13.404;2024-02-26T00:07:40;2.40;99.90
18880;DHT22;9572;52.378;13.404;2024-02-26T00:10:07;2.40;99.90
18880;DHT22;9572;52.378;13.404;2024-02-26T00:12:34;2.30;99.90
18880;DHT22;9572;52.378;13.404;2024-02-26T00:15:03;2.30;99.90
18880;DHT22;9572;52.378;13.404;2024-02-26T00:17:30;2.30;99.90
18880;DHT22;9572;52.378;13.404;2024-02-26T00:19:57;2.20;99.90
18880;DHT22;9572;52.378;13.404;2024-02-26T00:22:24;2.20;99.90
18880;DHT22;9572;52.378;13.404;2024-02-26T00:24:51;2.20;99.90
18880;DHT22;9572;52.378;13.404;2024-02-26T00:27:18;2.20;99.90
18880;DHT22;9572;52.378;13.404;2024-02-26T00:29:44;2.20;99.90
18880;DHT22;9572;52.378;13.404;2024-02-26T00:32:13;2.10;99.90
18880;DHT22;9572;52.378;13.404;2024-02-26T00:34:40;2.10;99.90
18880;DHT22;9572;52.378;13.404;2024-02-26T00:37:06;2.10;99.90
18880;DHT22;9572;52.378;13.404;2024-02-26T00:39:33;2.10;99.90
18880;DHT22;9572;52.378;13.404;2024-02-26T00:42:00;2.10;99.90
18880;DHT22;9572;52.378;13.404;2024-02-26T00:44:28;2.00;99.90
18880;DHT22;9572;52.378;13.404;2024-02-26T00:46:55;2.00;99.90
18880;DHT22;9572;52.378;13.404;2024-02-26T00:49:23;2.00;99.90
18880;DHT22;9572;52.378;13.404;2024-02-26T00:51:50;2.00;99.90
18880;DHT22;9572;52.378;13.404;2024-02-26T00:54:17;2.00;99.90
18880;DHT22;9572;52.378;13.404;2024-02-26T00:56:44;1.90;99.90
18880;DHT22;9572;52.378;13.404;2024-02-26T00:59:10;1.90;99.90
18880;DHT22;9572;52.378;13.404;2024-02-26T01:01:37;1.90;99.90
18880;DHT22;9572;52.378;13.404;2024-02-26T01:04:04;1.90;99.90
18880;DHT22;9572;52.378;13.404;2024-02-26T01:06:32;1.80;99.90
18880;DHT22;9572;52.378;13.404;2024-02-26T01:08:59;1.80;99.90
18880;DHT22;9572;52.378;13.404;2024-02-26T01:11:26;1.70;99.90
18880;DHT22;9572;52.378;13.404;2024-02-26T01:13:53;1.60;99.90
18880;DHT22;9572;52.378;13.404;2024-02-26T01:16:22;1.60;99.90
18880;DHT22;9572;52.378;13.404;2024-02-26T01:18:49;1.60;99.90
18880;DHT22;9572;52.378;13.404;2024-02-26T01:21:16;1.60;99.90
18880;DHT22;9572;52.378;13.404;2024-02-26T01:23:44;1.60;99.90
18880;DHT22;9572;52.378;13.404;2024-02-26T01:26:11;1.70;99.90
18880;DHT22;9572;52.378;13.404;2024-02-26T01:28:37;1.60;99.90
18880;DHT22;9572;52.378;13.404;2024-02-26T01:31:03;1.60;99.90
18880;DHT22;9572;52.378;13.404;2024-02-26T01:33:34;1.60;99.90
18880;DHT22;9572;52.378;13.404;2024-02-26T01:36:01;1.60;99.90
18880;DHT22;9572;52.378;13.404;2024-02-26T01:38:28;1.60;99.90
18880;DHT22;9572;52.378;13.404;2024-02-26T01:40:56;1.60;99.90
18880;DHT22;9572;52.378;13.404;2024-02-26T01:43:23;1.50;99.90
18880;DHT22;9572;52.378;13.404;2024-02-26T01:45:50;1.50;99.90
18880;DHT22;9572;52.378;13.404;2024-02-26T01:48:16;1.50;99.90
18880;DHT22;9572;52.378;13.404;2024-02-26T01:50:43;1.40;99.90
18880;DHT22;9572;52.378;13.404;2024-02-26T01:53:10;1.40;99.90
18880;DHT22;9572;52.378;13.404;2024-02-26T01:55:37;1.40;99.90
18880;DHT22;9572;52.378;13.404;2024-02-26T01:58:06;1.40;99.90
18880;DHT22;9572;52.378;13.404;2024-02-26T02:00:33;1.40;99.90
18880;DHT22;9572;52.378;13.404;2024-02-26T02:03:00;1.40;99.90
18880;DHT22;9572;52.378;13.404;2024-02-26T02:05:29;1.40;99.90
18880;DHT22;9572;52.378;13.404;2024-02-26T02:11:19;1.40;99.90
18880;DHT22;9572;52.378;13.404;2024-02-26T02:13:47;1.30;99.90
18880;DHT22;9572;52.378;13.404;2024-02-26T02:16:14;1.40;99.90
18880;DHT22;9572;52.378;13.404;2024-02-26T02:18:50;1.40;99.90
18880;DHT22;9572;52.378;13.404;2024-02-26T02:24:41;1.20;99.90
18880;DHT22;9572;52.378;13.404;2024-02-26T02:27:08;1.20;99.90
18880;DHT22;9572;52.378;13.404;2024-02-26T02:32:55;1.30;99.90
18880;DHT22;9572;52.378;13.404;2024-02-26T02:42:09;1.20;99.90
18880;DHT22;9572;52.378;13.404;2024-02-26T02:44:36;1.30;99.90
18880;DHT22;9572;52.378;13.404;2024-02-26T02:47:03;1.20;99.90
18880;DHT22;9572;52.378;13.404;2024-02-26T02:49:30;1.20;99.90
18880;DHT22;9572;52.378;13.404;2024-02-26T02:51:57;1.30;99.90
18880;DHT22;9572;52.378;13.404;2024-02-26T02:54:24;1.30;99.90
18880;DHT22;9572;52.378;13.404;2024-02-26T02:56:50;1.30;99.90
18880;DHT22;9572;52.378;13.404;2024-02-26T02:59:19;1.40;99.90
18880;DHT22;9572;52.378;13.404;2024-02-26T03:01:45;1.40;99.90
18880;DHT22;9572;52.378;13.404;2024-02-26T03:04:12;1.20;99.90
18880;DHT22;9572;52.378;13.404;2024-02-26T03:06:39;1.20;99.90
18880;DHT22;9572;52.378;13.404;2024-02-26T03:09:06;1.20;99.90
18880;DHT22;9572;52.378;13.404;2024-02-26T03:11:33;1.20;99.90
18880;DHT22;9572;52.378;13.404;2024-02-26T03:14:00;1.20;99.90
18880;DHT22;9572;52.378;13.404;2024-02-26T03:16:29;1.20;99.90
18880;DHT22;9572;52.378;13.404;2024-02-26T03:18:56;1.10;99.90
18880;DHT22;9572;52.378;13.404;2024-02-26T03:21:24;1.20;99.90
18880;DHT22;9572;52.378;13.404;2024-02-26T03:23:51;1.20;99.90
18880;DHT22;9572;52.378;13.404;2024-02-26T03:26:18;1.20;99.90
18880;DHT22;9572;52.378;13.404;2024-02-26T03:28:44;1.20;99.90
18880;DHT22;9572;52.378;13.404;2024-02-26T03:31:11;1.10;99.90
18880;DHT22;9572;52.378;13.404;2024-02-26T03:33:39;1.10;99.90
18880;DHT22;9572;52.378;13.404;2024-02-26T03:36:07;1.10;99.90
18880;DHT22;9572;52.378;13.404;2024-02-26T03:38:33;1.10;99.90
18880;DHT22;9572;52.378;13.404;2024-02-26T03:41:00;1.20;99.90
18880;DHT22;9572;52.378;13.404;2024-02-26T03:43:27;1.20;99.90
18880;DHT22;9572;52.378;13.404;2024-02-26T03:45:54;1.20;99.90
18880;DHT22;9572;52.378;13.404;2024-02-26T03:48:21;1.10;99.90
18880;DHT22;9572;52.378;13.404;2024-02-26T03:50:49;1.10;99.90
18880;DHT22;9572;52.378;13.404;2024-02-26T03:53:16;1.10;99.90
18880;DHT22;9572;52.378;13.404;2024-02-26T03:55:43;1.20;99.90
18880;DHT22;9572;52.378;13.404;2024-02-26T03:58:12;1.20;99.90
18880;DHT22;9572;52.378;13.404;2024-02-26T04:00:39;1.10;99.90
18880;DHT22;9572;52.378;13.404;2024-02-26T04:03:06;1.00;99.90
18880;DHT22;9572;52.378;13.404;2024-02-26T04:05:33;1.10;99.90
18880;DHT22;9572;52.378;13.404;2024-02-26T04:08:01;1.10;99.90
18880;DHT22;9572;52.378;13.404;2024-02-26T04:10:29;1.10;99.90
18880;DHT22;9572;52.378;13.404;2024-02-26T04:12:56;1.10;99.90
18880;DHT22;9572;52.378;13.404;2024-02-26T04:15:22;1.10;99.90
18880;DHT22;9572;52.378;13.404;2024-02-26T04:17:49;1.10;99.90
18880;DHT22;9572;52.378;13.404;2024-02-26T04:20:16;1.00;99.90
18880;DHT22;9572;52.378;13.404;2024-02-26T04:22:43;1.00;99.90
18880;DHT22;9572;52.378;13.404;2024-02-26T04:25:12;1.10;99.90
18880;DHT22;9572;52.378;13.404;2024-02-26T04:27:39;1.10;99.90
18880;DHT22;9572;52.378;13.404;2024-02-26T04:30:07;1.20;99.90
18880;DHT22;9572;52.378;13.404;2024-02-26T04:32:34;1.20;99.90
18880;DHT22;9572;52.378;13.404;2024-02-26T04:35:01;1.20;99.90
18880;DHT22;9572;52.378;13.404;2024-02-26T04:37:28;1.20;99.90
18880;DHT22;9572;52.378;13.404;2024-02-26T04:39:58;1.20;99.90
18880;DHT22;9572;52.378;13.404;2024-02-26T04:42:26;1.30;99.90
18880;DHT22;9572;52.378;13.404;2024-02-26T04:44:54;1.30;99.90
18880;DHT22;9572;52.378;13.404;2024-02-26T04:47:21;1.20;99.90
18880;DHT22;9572;52.378;13.404;2024-02-26T04:49:48;1.20;99.90
18880;DHT22;9572;52.378;13.404;2024-02-26T04:52:15;1.30;99.90
18880;DHT22;9572;52.378;13.404;2024-02-26T04:54:42;1.30;99.90
18880;DHT22;9572;52.378;13.404;2024-02-26T04:57:09;1.30;99.90
18880;DHT22;9572;52.378;13.404;2024-02-26T04:59:37;1.30;99.90
18880;DHT22;9572;52.378;13.404;2024-02-26T05:02:06;1.30;99.90
18880;DHT22;9572;52.378;13.404;2024-02-26T05:04:33;1.30;99.90
18880;DHT22;9572;52.378;13.404;2024-02-26T05:06:59;1.30;99.90
18880;DHT22;9572;52.378;13.404;2024-02-26T05:09:26;1.30;99.90
18880;DHT22;9572;52.378;13.404;2024-02-26T05:11:53;1.30;99.90
18880;DHT22;9572;52.378;13.404;2024-02-26T05:14:20;1.30;99.90
18880;DHT22;9572;52.378;13.404;2024-02-26T05:16:48;1.30;99.90
18880;DHT22;9572;52.378;13.404;2024-02-26T05:19:15;1.30;99.90
18880;DHT22;9572;52.378;13.404;2024-02-26T05:21:42;1.30;99.90
18880;DHT22;9572;52.378;13.404;2024-02-26T05:24:09;1.40;99.90
18880;DHT22;9572;52.378;13.404;2024-02-26T05:26:37;1.40;99.90
18880;DHT22;9572;52.378;13.404;2024-02-26T05:29:04;1.30;99.90
18880;DHT22;9572;52.378;13.404;2024-02-26T05:31:31;1.40;99.90
18880;DHT22;9572;52.378;13.404;2024-02-26T05:33:59;1.30;99.90
18880;DHT22;9572;52.378;13.404;2024-02-26T05:36:26;1.30;99.90
18880;DHT22;9572;52.378;13.404;2024-02-26T05:38:54;1.20;99.90
18880;DHT22;9572;52.378;13.404;2024-02-26T05:41:21;1.10;99.90
18880;DHT22;9572;52.378;13.404;2024-02-26T05:43:51;1.10;99.90
18880;DHT22;9572;52.378;13.404;2024-02-26T05:46:18;1.10;99.90
18880;DHT22;9572;52.378;13.404;2024-02-26T05:48:48;1.00;99.90
18880;DHT22;9572;52.378;13.404;2024-02-26T05:51:17;1.00;99.90
18880;DHT22;9572;52.378;13.404;2024-02-26T05:53:44;1.00;99.90
18880;DHT22;9572;52.378;13.404;2024-02-26T05:56:10;1.00;99.90
18880;DHT22;9572;52.378;13.404;2024-02-26T05:58:37;1.00;99.90
18880;DHT22;9572;52.378;13.404;2024-02-26T06:01:04;1.10;99.90
18880;DHT22;9572;52.378;13.404;2024-02-26T06:03:31;1.10;99.90
18880;DHT22;9572;52.378;13.404;2024-02-26T06:05:58;1.10;99.90
18880;DHT22;9572;52.378;13.404;2024-02-26T06:08:26;1.10;99.90
18880;DHT22;9572;52.378;13.404;2024-02-26T06:10:53;1.10;99.90
18880;DHT22;9572;52.378;13.404;2024-02-26T06:13:20;1.20;99.90
18880;DHT22;9572;52.378;13.404;2024-02-26T06:15:46;1.20;99.90
18880;DHT22;9572;52.378;13.404;2024-02-26T06:18:13;1.30;99.90
18880;DHT22;9572;52.378;13.404;2024-02-26T06:20:41;1.30;99.90
18880;DHT22;9572;52.378;13.404;2024-02-26T06:23:08;1.40;99.90
18880;DHT22;9572;52.378;13.404;2024-02-26T06:25:37;1.50;99.90
18880;DHT22;9572;52.378;13.404;2024-02-26T06:28:04;1.50;99.90
18880;DHT22;9572;52.378;13.404;2024-02-26T06:30:31;1.60;99.90
18880;DHT22;9572;52.378;13.404;2024-02-26T06:32:58;1.60;99.90
18880;DHT22;9572;52.378;13.404;2024-02-26T06:35:26;1.70;99.90
18880;DHT22;9572;52.378;13.404;2024-02-26T06:37:53;1.70;99.90
18880;DHT22;9572;52.378;13.404;2024-02-26T06:40:20;1.70;99.90
18880;DHT22;9572;52.378;13.404;2024-02-26T06:42:48;1.80;99.90
18880;DHT22;9572;52.378;13.404;2024-02-26T06:45:15;1.80;99.90
18880;DHT22;9572;52.378;13.404;2024-02-26T06:47:42;1.80;99.90
18880;DHT22;9572;52.378;13.404;2024-02-26T06:50:12;1.90;99.90
18880;DHT22;9572;52.378;13.404;2024-02-26T06:52:39;1.90;99.90
18880;DHT22;9572;52.378;13.404;2024-02-26T06:55:06;2.00;99.90
18880;DHT22;9572;52.378;13.404;2024-02-26T06:57:34;2.30;99.90
18880;DHT22;9572;52.378;13.404;2024-02-26T07:00:02;2.70;99.90
18880;DHT22;9572;52.378;13.404;2024-02-26T07:02:30;3.00;99.90
18880;DHT22;9572;52.378;13.404;2024-02-26T07:04:57;3.30;99.90
18880;DHT22;9572;52.378;13.404;2024-02-26T07:07:24;3.70;99.90
18880;DHT22;9572;52.378;13.404;2024-02-26T07:09:51;4.10;99.90
18880;DHT22;9572;52.378;13.404;2024-02-26T07:12:18;4.10;99.90
18880;DHT22;9572;52.378;13.404;2024-02-26T07:14:46;4.20;99.90
18880;DHT22;9572;52.378;13.404;2024-02-26T07:17:15;4.40;99.90
18880;DHT22;9572;52.378;13.404;2024-02-26T07:19:42;4.60;99.90
18880;DHT22;9572;52.378;13.404;2024-02-26T07:22:09;4.70;99.90
18880;DHT22;9572;52.378;13.404;2024-02-26T07:24:36;4.60;99.90
18880;DHT22;9572;52.378;13.404;2024-02-26T07:27:03;4.30;99.90
18880;DHT22;9572;52.378;13.404;2024-02-26T07:29:30;4.20;99.90
18880;DHT22;9572;52.378;13.404;2024-02-26T07:31:58;4.00;99.90
18880;DHT22;9572;52.378;13.404;2024-02-26T07:34:26;4.00;99.90
18880;DHT22;9572;52.378;13.404;2024-02-26T07:36:54;3.90;99.90
18880;DHT22;9572;52.378;13.404;2024-02-26T07:39:21;3.90;99.90
18880;DHT22;9572;52.378;13.404;2024-02-26T07:41:48;3.90;99.90
18880;DHT22;9572;52.378;13.404;2024-02-26T07:44:17;3.90;99.90
18880;DHT22;9572;52.378;13.404;2024-02-26T07:46:43;3.90;99.90
18880;DHT22;9572;52.378;13.404;2024-02-26T07:49:10;3.90;99.90
18880;DHT22;9572;52.378;13.404;2024-02-26T07:51:38;4.00;99.90
18880;DHT22;9572;52.378;13.404;2024-02-26T07:54:05;4.10;99.90
18880;DHT22;9572;52.378;13.404;2024-02-26T07:56:32;4.10;99.90
18880;DHT22;9572;52.378;13.404;2024-02-26T07:58:59;4.10;99.90
18880;DHT22;9572;52.378;13.404;2024-02-26T08:01:26;4.30;99.90
18880;DHT22;9572;52.378;13.404;2024-02-26T08:03:53;4.30;99.90
18880;DHT22;9572;52.378;13.404;2024-02-26T08:06:20;4.30;99.90
18880;DHT22;9572;52.378;13.404;2024-02-26T08:08:48;4.30;99.90
18880;DHT22;9572;52.378;13.404;2024-02-26T08:11:15;4.30;99.90
18880;DHT22;9572;52.378;13.404;2024-02-26T08:13:42;4.30;99.90
18880;DHT22;9572;52.378;13.404;2024-02-26T08:16:09;4.40;99.90
18880;DHT22;9572;52.378;13.404;2024-02-26T08:18:36;4.40;99.90
18880;DHT22;9572;52.378;13.404;2024-02-26T08:21:03;4.60;99.90
18880;DHT22;9572;52.378;13.404;2024-02-26T08:23:30;4.70;99.90
18880;DHT22;9572;52.378;13.404;2024-02-26T08:25:59;4.70;99.90
18880;DHT22;9572;52.378;13.404;2024-02-26T08:28:25;4.80;99.90
18880;DHT22;9572;52.378;13.404;2024-02-26T08:30:52;4.90;99.90
18880;DHT22;9572;52.378;13.404;2024-02-26T08:33:19;5.00;99.90
18880;DHT22;9572;52.378;13.404;2024-02-26T08:35:46;5.10;99.90
18880;DHT22;9572;52.378;13.404;2024-02-26T08:38:13;5.20;99.90
18880;DHT22;9572;52.378;13.404;2024-02-26T08:40:40;5.20;99.90
18880;DHT22;9572;52.378;13.404;2024-02-26T08:43:08;5.20;99.90
18880;DHT22;9572;52.378;13.404;2024-02-26T08:45:35;5.40;99.90
18880;DHT22;9572;52.378;13.404;2024-02-26T08:48:03;5.40;99.90
18880;DHT22;9572;52.378;13.404;2024-02-26T08:50:29;5.50;99.90
18880;DHT22;9572;52.378;13.404;2024-02-26T08:52:56;5.60;99.90
18880;DHT22;9572;52.378;13.404;2024-02-26T08:55:23;5.70;99.90
18880;DHT22;9572;52.378;13.404;2024-02-26T08:57:50;5.80;99.90
18880;DHT22;9572;52.378;13.404;2024-02-26T09:00:19;5.90;99.90
18880;DHT22;9572;52.378;13.404;2024-02-26T09:02:46;6.10;99.90
18880;DHT22;9572;52.378;13.404;2024-02-26T09:05:14;6.10;99.90
18880;DHT22;9572;52.378;13.404;2024-02-26T09:07:41;6.10;99.90
18880;DHT22;9572;52.378;13.404;2024-02-26T09:10:08;6.20;99.90
18880;DHT22;9572;52.378;13.404;2024-02-26T09:12:36;6.10;99.90
18880;DHT22;9572;52.378;13.404;2024-02-26T09:15:03;6.10;99.90
18880;DHT22;9572;52.378;13.404;2024-02-26T09:17:31;6.20;99.90
18880;DHT22;9572;52.378;13.404;2024-02-26T09:19:58;6.30;99.90
18880;DHT22;9572;52.378;13.404;2024-02-26T09:22:25;6.40;99.90
18880;DHT22;9572;52.378;13.404;2024-02-26T09:24:52;6.50;99.90
18880;DHT22;9572;52.378;13.404;2024-02-26T09:27:19;6.50;99.90
18880;DHT22;9572;52.378;13.404;2024-02-26T09:29:46;6.60;99.90
18880;DHT22;9572;52.378;13.404;2024-02-26T09:32:13;6.70;99.90
18880;DHT22;9572;52.378;13.404;2024-02-26T09:34:41;6.90;99.90
18880;DHT22;9572;52.378;13.404;2024-02-26T09:37:08;7.00;99.90
18880;DHT22;9572;52.378;13.404;2024-02-26T09:39:35;7.20;99.90
18880;DHT22;9572;52.378;13.404;2024-02-26T09:42:04;7.30;99.90
18880;DHT22;9572;52.378;13.404;2024-02-26T09:44:33;7.50;99.90
18880;DHT22;9572;52.378;13.404;2024-02-26T09:47:04;7.50;99.90
18880;DHT22;9572;52.378;13.404;2024-02-26T09:49:32;7.60;99.90
18880;DHT22;9572;52.378;13.404;2024-02-26T09:52:01;7.60;99.90
18880;DHT22;9572;52.378;13.404;2024-02-26T09:54:29;7.70;99.90
18880;DHT22;9572;52.378;13.404;2024-02-26T09:57:00;7.70;99.90
18880;DHT22;9572;52.378;13.404;2024-02-26T09:59:29;7.70;99.90
18880;DHT22;9572;52.378;13.404;2024-02-26T10:02:01;7.80;99.90
18880;DHT22;9572;52.378;13.404;2024-02-26T10:04:28;7.80;99.90
18880;DHT22;9572;52.378;13.404;2024-02-26T10:06:56;7.90;99.90
18880;DHT22;9572;52.378;13.404;2024-02-26T10:09:26;8.00;99.90
18880;DHT22;9572;52.378;13.404;2024-02-26T10:11:53;8.00;99.90
18880;DHT22;9572;52.378;13.404;2024-02-26T10:14:21;8.00;99.90
18880;DHT22;9572;52.378;13.404;2024-02-26T10:16:48;8.20;99.90
18880;DHT22;9572;52.378;13.404;2024-02-26T10:19:25;8.30;99.90
18880;DHT22;9572;52.378;13.404;2024-02-26T10:21:56;8.50;99.90
18880;DHT22;9572;52.378;13.404;2024-02-26T10:24:22;8.60;99.90
18880;DHT22;9572;52.378;13.404;2024-02-26T10:26:52;8.70;99.90
18880;DHT22;9572;52.378;13.404;2024-02-26T10:29:19;8.80;99.90
18880;DHT22;9572;52.378;13.404;2024-02-26T10:31:46;8.90;99.90
18880;DHT22;9572;52.378;13.404;2024-02-26T10:34:14;9.00;99.90
18880;DHT22;9572;52.378;13.404;2024-02-26T10:36:42;9.10;99.90
18880;DHT22;9572;52.378;13.404;2024-02-26T10:39:09;9.20;99.90
18880;DHT22;9572;52.378;13.404;2024-02-26T10:41:38;9.20;99.90
18880;DHT22;9572;52.378;13.404;2024-02-26T10:44:08;9.30;99.90
18880;DHT22;9572;52.378;13.404;2024-02-26T10:46:37;9.30;99.90
18880;DHT22;9572;52.378;13.404;2024-02-26T10:49:04;9.40;99.90
18880;DHT22;9572;52.378;13.404;2024-02-26T10:51:36;9.50;99.90
18880;DHT22;9572;52.378;13.404;2024-02-26T10:54:04;9.50;99.90
18880;DHT22;9572;52.378;13.404;2024-02-26T10:56:34;9.60;99.90
18880;DHT22;9572;52.378;13.404;2024-02-26T10:59:01;9.70;99.90
18880;DHT22;9572;52.378;13.404;2024-02-26T11:01:30;9.80;99.90
18880;DHT22;9572;52.378;13.404;2024-02-26T11:03:58;9.80;99.90
18880;DHT22;9572;52.378;13.404;2024-02-26T11:06:27;9.90;99.90
18880;DHT22;9572;52.378;13.404;2024-02-26T11:08:55;10.00;99.90
18880;DHT22;9572;52.378;13.404;2024-02-26T11:11:23;10.10;99.90
18880;DHT22;9572;52.378;13.404;2024-02-26T11:13:51;10.30;99.90
18880;DHT22;9572;52.378;13.404;2024-02-26T11:16:21;10.40;99.90
18880;DHT22;9572;52.378;13.404;2024-02-26T11:18:49;10.40;99.90
18880;DHT22;9572;52.378;13.404;2024-02-26T11:21:20;10.40;99.90
18880;DHT22;9572;52.378;13.404;2024-02-26T11:23:53;10.60;99.90
18880;DHT22;9572;52.378;13.404;2024-02-26T11:26:20;10.60;99.90
18880;DHT22;9572;52.378;13.404;2024-02-26T11:28:49;10.60;99.90
18880;DHT22;9572;52.378;13.404;2024-02-26T11:31:17;10.60;99.90
18880;DHT22;9572;52.378;13.404;2024-02-26T11:33:53;10.60;99.90
18880;DHT22;9572;52.378;13.404;2024-02-26T11:36:21;10.60;99.90
18880;DHT22;9572;52.378;13.404;2024-02-26T11:38:50;10.70;99.90
18880;DHT22;9572;52.378;13.404;2024-02-26T11:41:17;10.90;99.90
18880;DHT22;9572;52.378;13.404;2024-02-26T11:43:51;10.90;99.90
18880;DHT22;9572;52.378;13.404;2024-02-26T11:46:25;11.00;99.90
18880;DHT22;9572;52.378;13.404;2024-02-26T11:48:56;11.10;99.90
18880;DHT22;9572;52.378;13.404;2024-02-26T11:51:27;11.00;99.90
18880;DHT22;9572;52.378;13.404;2024-02-26T11:53:55;11.10;99.90
18880;DHT22;9572;52.378;13.404;2024-02-26T11:56:25;11.20;99.90
18880;DHT22;9572;52.378;13.404;2024-02-26T11:59:00;11.20;99.90
18880;DHT22;9572;52.378;13.404;2024-02-26T12:01:41;11.30;99.90
18880;DHT22;9572;52.378;13.404;2024-02-26T12:04:12;11.40;99.90
18880;DHT22;9572;52.378;13.404;2024-02-26T12:06:45;11.50;99.90
18880;DHT22;9572;52.378;13.404;2024-02-26T12:09:12;11.50;99.90
18880;DHT22;9572;52.378;13.404;2024-02-26T12:11:40;11.50;99.90
18880;DHT22;9572;52.378;13.404;2024-02-26T12:14:08;11.50;99.90
18880;DHT22;9572;52.378;13.404;2024-02-26T12:16:36;11.50;99.90
18880;DHT22;9572;52.378;13.404;2024-02-26T12:19:05;11.50;99.90
18880;DHT22;9572;52.378;13.404;2024-02-26T12:21:35;11.50;99.90
18880;DHT22;9572;52.378;13.404;2024-02-26T12:24:11;11.60;99.90
18880;DHT22;9572;52.378;13.404;2024-02-26T12:26:39;11.60;99.90
18880;DHT22;9572;52.378;13.404;2024-02-26T12:29:06;11.60;99.90
18880;DHT22;9572;52.378;13.404;2024-02-26T12:31:33;11.60;99.90
18880;DHT22;9572;52.378;13.404;2024-02-26T12:34:02;11.60;99.90
18880;DHT22;9572;52.378;13.404;2024-02-26T12:36:29;11.50;99.90
18880;DHT22;9572;52.378;13.404;2024-02-26T12:38:58;11.60;99.90
18880;DHT22;9572;52.378;13.404;2024-02-26T12:41:26;11.60;99.90
18880;DHT22;9572;52.378;13.404;2024-02-26T12:43:53;11.70;99.90
18880;DHT22;9572;52.378;13.404;2024-02-26T12:46:21;11.60;99.90
18880;DHT22;9572;52.378;13.404;2024-02-26T12:48:48;11.70;99.90
18880;DHT22;9572;52.378;13.404;2024-02-26T12:51:16;11.70;99.90
18880;DHT22;9572;52.378;13.404;2024-02-26T12:53:44;11.70;99.90
18880;DHT22;9572;52.378;13.404;2024-02-26T12:56:12;11.80;99.90
18880;DHT22;9572;52.378;13.404;2024-02-26T12:58:40;11.80;99.90
18880;DHT22;9572;52.378;13.404;2024-02-26T13:01:07;11.90;99.90
18880;DHT22;9572;52.378;13.404;2024-02-26T13:03:40;11.90;99.90
18880;DHT22;9572;52.378;13.404;2024-02-26T13:06:08;11.90;99.90
18880;DHT22;9572;52.378;13.404;2024-02-26T13:08:35;11.90;99.90
18880;DHT22;9572;52.378;13.404;2024-02-26T13:11:02;11.90;99.90
18880;DHT22;9572;52.378;13.404;2024-02-26T13:13:30;11.90;99.90
18880;DHT22;9572;52.378;13.404;2024-02-26T13:16:04;11.80;99.90
18880;DHT22;9572;52.378;13.404;2024-02-26T13:18:33;11.80;99.90
18880;DHT22;9572;52.378;13.404;2024-02-26T13:21:09;11.70;99.90
18880;DHT22;9572;52.378;13.404;2024-02-26T13:23:37;11.80;99.90
18880;DHT22;9572;52.378;13.404;2024-02-26T13:26:04;11.90;99.90
18880;DHT22;9572;52.378;13.404;2024-02-26T13:28:32;11.80;99.90
18880;DHT22;9572;52.378;13.404;2024-02-26T13:31:00;11.80;99.90
18880;DHT22;9572;52.378;13.404;2024-02-26T13:33:29;11.90;99.90
18880;DHT22;9572;52.378;13.404;2024-02-26T13:35:57;11.90;99.90
18880;DHT22;9572;52.378;13.404;2024-02-26T13:38:24;11.80;99.90
18880;DHT22;9572;52.378;13.404;2024-02-26T13:40:51;11.80;99.90
18880;DHT22;9572;52.378;13.404;2024-02-26T13:43:18;11.70;99.90
18880;DHT22;9572;52.378;13.404;2024-02-26T13:45:47;11.70;99.90
18880;DHT22;9572;52.378;13.404;2024-02-26T13:48:14;11.60;99.90
18880;DHT22;9572;52.378;13.404;2024-02-26T13:50:42;11.60;99.90
18880;DHT22;9572;52.378;13.404;2024-02-26T13:53:10;11.60;99.90
18880;DHT22;9572;52.378;13.404;2024-02-26T13:55:37;11.40;99.90
18880;DHT22;9572;52.378;13.404;2024-02-26T13:58:05;11.40;99.90
18880;DHT22;9572;52.378;13.404;2024-02-26T14:00:32;11.40;99.90
18880;DHT22;9572;52.378;13.404;2024-02-26T14:03:02;11.40;99.90
18880;DHT22;9572;52.378;13.404;2024-02-26T14:05:29;11.40;99.90
18880;DHT22;9572;52.378;13.404;2024-02-26T14:07:56;11.50;99.90
18880;DHT22;9572;52.378;13.404;2024-02-26T14:10:23;11.50;99.90
18880;DHT22;9572;52.378;13.404;2024-02-26T14:12:50;11.50;99.90
18880;DHT22;9572;52.378;13.404;2024-02-26T14:15:16;11.40;99.90
18880;DHT22;9572;52.378;13.404;2024-02-26T14:17:43;11.40;99.90
18880;DHT22;9572;52.378;13.404;2024-02-26T14:20:13;11.40;99.90
18880;DHT22;9572;52.378;13.404;2024-02-26T14:22:39;11.40;99.90
18880;DHT22;9572;52.378;13.404;2024-02-26T14:25:07;11.30;99.90
18880;DHT22;9572;52.378;13.404;2024-02-26T14:27:35;11.30;99.90
18880;DHT22;9572;52.378;13.404;2024-02-26T14:30:01;11.30;99.90
18880;DHT22;9572;52.378;13.404;2024-02-26T14:32:28;11.30;99.90
18880;DHT22;9572;52.378;13.404;2024-02-26T14:34:56;11.20;99.90
18880;DHT22;9572;52.378;13.404;2024-02-26T14:37:25;11.20;99.90
18880;DHT22;9572;52.378;13.404;2024-02-26T14:39:52;11.10;99.90
18880;DHT22;9572;52.378;13.404;2024-02-26T14:42:19;11.00;99.90
18880;DHT22;9572;52.378;13.404;2024-02-26T14:44:46;11.00;99.90
18880;DHT22;9572;52.378;13.404;2024-02-26T14:47:13;10.90;99.90
18880;DHT22;9572;52.378;13.404;2024-02-26T14:49:40;10.90;99.90
18880;DHT22;9572;52.378;13.404;2024-02-26T14:52:07;10.90;99.90
18880;DHT22;9572;52.378;13.404;2024-02-26T14:54:35;10.80;99.90
18880;DHT22;9572;52.378;13.404;2024-02-26T14:57:05;10.80;99.90
18880;DHT22;9572;52.378;13.404;2024-02-26T14:59:32;10.80;99.90
18880;DHT22;9572;52.378;13.404;2024-02-26T15:01:59;10.70;99.90
18880;DHT22;9572;52.378;13.404;2024-02-26T15:04:26;10.70;99.90
18880;DHT22;9572;52.378;13.404;2024-02-26T15:06:53;10.70;99.90
18880;DHT22;9572;52.378;13.404;2024-02-26T15:09:20;10.70;99.90
18880;DHT22;9572;52.378;13.404;2024-02-26T15:11:48;10.60;99.90
18880;DHT22;9572;52.378;13.404;2024-02-26T15:14:15;10.60;99.90
18880;DHT22;9572;52.378;13.404;2024-02-26T15:16:43;10.60;99.90
18880;DHT22;9572;52.378;13.404;2024-02-26T15:19:10;10.60;99.90
18880;DHT22;9572;52.378;13.404;2024-02-26T15:21:42;10.50;99.90
18880;DHT22;9572;52.378;13.404;2024-02-26T15:24:10;10.50;99.90
18880;DHT22;9572;52.378;13.404;2024-02-26T15:26:37;10.50;99.90
18880;DHT22;9572;52.378;13.404;2024-02-26T15:29:06;10.50;99.90
18880;DHT22;9572;52.378;13.404;2024-02-26T15:31:34;10.40;99.90
18880;DHT22;9572;52.378;13.404;2024-02-26T15:34:01;10.40;99.90
18880;DHT22;9572;52.378;13.404;2024-02-26T15:36:28;10.40;99.90
18880;DHT22;9572;52.378;13.404;2024-02-26T15:38:55;10.40;99.90
18880;DHT22;9572;52.378;13.404;2024-02-26T15:41:22;10.40;99.90
18880;DHT22;9572;52.378;13.404;2024-02-26T15:43:49;10.40;99.90
18880;DHT22;9572;52.378;13.404;2024-02-26T15:46:18;10.40;99.90
18880;DHT22;9572;52.378;13.404;2024-02-26T15:48:45;10.40;99.90
18880;DHT22;9572;52.378;13.404;2024-02-26T15:51:18;10.30;99.90
18880;DHT22;9572;52.378;13.404;2024-02-26T15:53:46;10.30;99.90
18880;DHT22;9572;52.378;13.404;2024-02-26T15:56:13;10.30;99.90
18880;DHT22;9572;52.378;13.404;2024-02-26T15:58:40;10.20;99.90
18880;DHT22;9572;52.378;13.404;2024-02-26T16:01:07;10.20;99.90